sensor_id;sensor_type;location;lat;lon;timestamp;temperature;humidity
20487;DHT22;10402;49.012;8.370;2023-04-10T00:00:05;10.10;55.80
20487;DHT22;10402;49.012;8.370;2023-04-10T00:02:31;10.00;55.80
20487;DHT22;10402;49.012;8.370;2023-04-10T00:04:57;10.00;55.80
20487;DHT22;10402;49.012;8.370;2023-04-10T00:07:23;10.00;55.90
20487;DHT22;10402;49.012;8.370;2023-04-10T00:09:49;10.00;56.10
20487;DHT22;10402;49.012;8.370;2023-04-10T00:12:14;10.00;56.10
20487;DHT22;10402;49.012;8.370;2023-04-10T00:14:40;10.00;56.20
20487;DHT22;10402;49.012;8.370;2023-04-10T00:17:06;9.90;57.00
20487;DHT22;10402;49.012;8.370;2023-04-10T00:19:31;9.70;57.10
20487;DHT22;10402;49.012;8.370;2023-04-10T00:21:57;9.60;57.30
20487;DHT22;10402;49.012;8.370;2023-04-10T00:24:23;9.50;57.40
20487;DHT22;10402;49.012;8.370;2023-04-10T00:26:48;9.40;57.50
20487;DHT22;10402;49.012;8.370;2023-04-10T00:29:14;9.40;57.70
20487;DHT22;10402;49.012;8.370;2023-04-10T00:31:39;9.40;57.80
20487;DHT22;10402;49.012;8.370;2023-04-10T00:34:05;9.30;57.80
20487;DHT22;10402;49.012;8.370;2023-04-10T00:36:31;9.30;57.90
20487;DHT22;10402;49.012;8.370;2023-04-10T00:38:57;9.30;57.90
20487;DHT22;10402;49.012;8.370;2023-04-10T00:41:24;9.40;57.80
20487;DHT22;10402;49.012;8.370;2023-04-10T00:43:53;9.30;57.70
20487;DHT22;10402;49.012;8.370;2023-04-10T00:46:19;9.30;57.80
20487;DHT22;10402;49.012;8.370;2023-04-10T00:48:45;9.20;57.90
20487;DHT22;10402;49.012;8.370;2023-04-10T00:51:11;9.20;58.00
20487;DHT22;10402;49.012;8.370;2023-04-10T00:53:36;9.20;58.10
20487;DHT22;10402;49.012;8.370;2023-04-10T00:56:02;9.10;58.10
20487;DHT22;10402;49.012;8.370;2023-04-10T00:58:28;9.10;58.30
20487;DHT22;10402;49.012;8.370;2023-04-10T01:00:54;9.10;58.20
20487;DHT22;10402;49.012;8.370;2023-04-10T01:03:20;9.00;58.30
20487;DHT22;10402;49.012;8.370;2023-04-10T01:05:50;9.00;58.50
20487;DHT22;10402;49.012;8.370;2023-04-10T01:08:29;8.90;58.50
20487;DHT22;10402;49.012;8.370;2023-04-10T01:25:55;9.10;58.60
20487;DHT22;10402;49.012;8.370;2023-04-10T01:31:20;9.10;58.60
20487;DHT22;10402;49.012;8.370;2023-04-10T01:33:54;9.10;58.80
20487;DHT22;10402;49.012;8.370;2023-04-10T01:36:25;9.00;58.80
20487;DHT22;10402;49.012;8.370;2023-04-10T01:38:53;9.00;58.80
20487;DHT22;10402;49.012;8.370;2023-04-10T01:41:22;9.10;58.90
20487;DHT22;10402;49.012;8.370;2023-04-10T01:43:50;9.10;59.10
20487;DHT22;10402;49.012;8.370;2023-04-10T01:46:20;9.10;59.10
20487;DHT22;10402;49.012;8.370;2023-04-10T01:48:46;9.00;59.00
20487;DHT22;10402;49.012;8.370;2023-04-10T01:51:14;9.00;59.20
20487;DHT22;10402;49.012;8.370;2023-04-10T01:53:43;8.90;59.20
20487;DHT22;10402;49.012;8.370;2023-04-10T01:56:10;8.90;59.40
20487;DHT22;10402;49.012;8.370;2023-04-10T01:58:36;8.80;59.40
20487;DHT22;10402;49.012;8.370;2023-04-10T02:01:02;8.90;59.50
20487;DHT22;10402;49.012;8.370;2023-04-10T02:03:28;8.90;59.50
20487;DHT22;10402;49.012;8.370;2023-04-10T02:06:34;8.90;59.60
20487;DHT22;10402;49.012;8.370;2023-04-10T02:09:18;8.90;59.40
20487;DHT22;10402;49.012;8.370;2023-04-10T02:12:03;8.90;59.40
20487;DHT22;10402;49.012;8.370;2023-04-10T02:14:31;8.90;59.40
20487;DHT22;10402;49.012;8.370;2023-04-10T02:16:58;8.80;59.60
20487;DHT22;10402;49.012;8.370;2023-04-10T02:19:26;8.90;59.70
20487;DHT22;10402;49.012;8.370;2023-04-10T02:21:52;8.80;59.60
20487;DHT22;10402;49.012;8.370;2023-04-10T02:24:19;8.80;59.70
20487;DHT22;10402;49.012;8.370;2023-04-10T02:26:50;8.80;59.70
20487;DHT22;10402;49.012;8.370;2023-04-10T02:29:17;8.80;59.70
20487;DHT22;10402;49.012;8.370;2023-04-10T02:31:44;8.80;59.80
20487;DHT22;10402;49.012;8.370;2023-04-10T02:34:10;8.80;59.90
20487;DHT22;10402;49.012;8.370;2023-04-10T02:36:37;8.70;59.90
20487;DHT22;10402;49.012;8.370;2023-04-10T02:39:03;8.70;60.00
20487;DHT22;10402;49.012;8.370;2023-04-10T02:41:28;8.70;60.00
20487;DHT22;10402;49.012;8.370;2023-04-10T02:43:54;8.70;60.20
20487;DHT22;10402;49.012;8.370;2023-04-10T02:46:20;8.60;60.10
20487;DHT22;10402;49.012;8.370;2023-04-10T02:48:45;8.60;60.20
20487;DHT22;10402;49.012;8.370;2023-04-10T02:51:12;8.60;60.30
20487;DHT22;10402;49.012;8.370;2023-04-10T02:53:37;8.60;60.30
20487;DHT22;10402;49.012;8.370;2023-04-10T02:56:03;8.60;60.30
20487;DHT22;10402;49.012;8.370;2023-04-10T02:58:31;8.60;60.30
20487;DHT22;10402;49.012;8.370;2023-04-10T03:00:57;8.60;61.20
20487;DHT22;10402;49.012;8.370;2023-04-10T03:03:22;8.60;60.50
20487;DHT22;10402;49.012;8.370;2023-04-10T03:05:48;8.50;60.50
20487;DHT22;10402;49.012;8.370;2023-04-10T03:08:16;8.50;60.70
20487;DHT22;10402;49.012;8.370;2023-04-10T03:10:46;8.50;60.80
20487;DHT22;10402;49.012;8.370;2023-04-10T03:13:13;8.50;60.80
20487;DHT22;10402;49.012;8.370;2023-04-10T03:15:39;8.40;60.80
20487;DHT22;10402;49.012;8.370;2023-04-10T03:18:04;8.40;61.00
20487;DHT22;10402;49.012;8.370;2023-04-10T03:20:31;8.40;61.10
20487;DHT22;10402;49.012;8.370;2023-04-10T03:22:58;8.40;61.00
20487;DHT22;10402;49.012;8.370;2023-04-10T03:25:24;8.40;61.10
20487;DHT22;10402;49.012;8.370;2023-04-10T03:27:49;8.40;61.20
20487;DHT22;10402;49.012;8.370;2023-04-10T03:30:15;8.30;61.40
20487;DHT22;10402;49.012;8.370;2023-04-10T03:32:41;8.30;61.40
20487;DHT22;10402;49.012;8.370;2023-04-10T03:35:08;8.30;61.40
20487;DHT22;10402;49.012;8.370;2023-04-10T03:37:34;8.40;61.50
20487;DHT22;10402;49.012;8.370;2023-04-10T03:39:59;8.40;61.30
20487;DHT22;10402;49.012;8.370;2023-04-10T03:42:25;8.40;61.20
20487;DHT22;10402;49.012;8.370;2023-04-10T03:44:51;8.40;61.20
20487;DHT22;10402;49.012;8.370;2023-04-10T03:47:17;8.40;61.20
20487;DHT22;10402;49.012;8.370;2023-04-10T03:49:42;8.30;61.40
20487;DHT22;10402;49.012;8.370;2023-04-10T03:52:08;8.30;61.40
20487;DHT22;10402;49.012;8.370;2023-04-10T03:54:33;8.20;61.30
20487;DHT22;10402;49.012;8.370;2023-04-10T03:56:59;8.10;61.20
20487;DHT22;10402;49.012;8.370;2023-04-10T03:59:25;8.10;61.30
20487;DHT22;10402;49.012;8.370;2023-04-10T04:01:51;8.20;61.30
20487;DHT22;10402;49.012;8.370;2023-04-10T04:04:17;8.10;61.30
20487;DHT22;10402;49.012;8.370;2023-04-10T04:06:43;8.00;61.60
20487;DHT22;10402;49.012;8.370;2023-04-10T04:09:08;7.90;61.80
20487;DHT22;10402;49.012;8.370;2023-04-10T04:11:34;7.90;61.90
20487;DHT22;10402;49.012;8.370;2023-04-10T04:13:59;8.00;61.90
20487;DHT22;10402;49.012;8.370;2023-04-10T04:16:25;8.00;61.80
20487;DHT22;10402;49.012;8.370;2023-04-10T04:18:51;8.00;61.60
20487;DHT22;10402;49.012;8.370;2023-04-10T04:21:17;8.10;61.70
20487;DHT22;10402;49.012;8.370;2023-04-10T04:23:42;8.10;61.70
20487;DHT22;10402;49.012;8.370;2023-04-10T04:26:08;8.10;61.60
20487;DHT22;10402;49.012;8.370;2023-04-10T04:28:33;8.10;61.60
20487;DHT22;10402;49.012;8.370;2023-04-10T04:30:59;8.10;61.70
20487;DHT22;10402;49.012;8.370;2023-04-10T04:33:25;8.00;61.70
20487;DHT22;10402;49.012;8.370;2023-04-10T04:35:51;8.00;61.90
20487;DHT22;10402;49.012;8.370;2023-04-10T04:38:16;8.00;62.00
20487;DHT22;10402;49.012;8.370;2023-04-10T04:40:44;7.90;62.00
20487;DHT22;10402;49.012;8.370;2023-04-10T04:43:10;7.90;62.00
20487;DHT22;10402;49.012;8.370;2023-04-10T04:45:35;7.80;62.10
20487;DHT22;10402;49.012;8.370;2023-04-10T04:48:01;7.80;62.20
20487;DHT22;10402;49.012;8.370;2023-04-10T04:50:26;7.80;62.20
20487;DHT22;10402;49.012;8.370;2023-04-10T04:52:52;7.80;62.00
20487;DHT22;10402;49.012;8.370;2023-04-10T04:55:17;7.90;62.00
20487;DHT22;10402;49.012;8.370;2023-04-10T04:57:43;8.00;61.70
20487;DHT22;10402;49.012;8.370;2023-04-10T05:00:09;8.00;61.50
20487;DHT22;10402;49.012;8.370;2023-04-10T05:02:35;8.10;61.20
20487;DHT22;10402;49.012;8.370;2023-04-10T05:05:00;8.10;61.20
20487;DHT22;10402;49.012;8.370;2023-04-10T05:07:26;8.10;61.20
20487;DHT22;10402;49.012;8.370;2023-04-10T05:09:51;8.10;61.20
20487;DHT22;10402;49.012;8.370;2023-04-10T05:12:17;8.10;61.20
20487;DHT22;10402;49.012;8.370;2023-04-10T05:14:44;8.20;61.40
20487;DHT22;10402;49.012;8.370;2023-04-10T05:17:10;8.20;61.30
20487;DHT22;10402;49.012;8.370;2023-04-10T05:19:36;8.20;61.30
20487;DHT22;10402;49.012;8.370;2023-04-10T05:22:01;8.20;61.30
20487;DHT22;10402;49.012;8.370;2023-04-10T05:24:27;8.20;61.10
20487;DHT22;10402;49.012;8.370;2023-04-10T05:26:52;8.20;61.00
20487;DHT22;10402;49.012;8.370;2023-04-10T05:29:18;8.20;61.00
20487;DHT22;10402;49.012;8.370;2023-04-10T05:31:44;8.30;61.00
20487;DHT22;10402;49.012;8.370;2023-04-10T05:34:09;8.30;60.90
20487;DHT22;10402;49.012;8.370;2023-04-10T05:36:36;8.40;60.90
20487;DHT22;10402;49.012;8.370;2023-04-10T05:39:01;8.50;60.90
20487;DHT22;10402;49.012;8.370;2023-04-10T05:41:27;8.50;60.70
20487;DHT22;10402;49.012;8.370;2023-04-10T05:43:52;8.60;60.70
20487;DHT22;10402;49.012;8.370;2023-04-10T05:46:18;8.60;60.50
20487;DHT22;10402;49.012;8.370;2023-04-10T05:48:43;8.70;60.50
20487;DHT22;10402;49.012;8.370;2023-04-10T05:51:09;8.70;60.30
20487;DHT22;10402;49.012;8.370;2023-04-10T05:53:34;8.80;60.30
20487;DHT22;10402;49.012;8.370;2023-04-10T05:56:00;8.90;60.10
20487;DHT22;10402;49.012;8.370;2023-04-10T05:58:27;9.00;60.00
20487;DHT22;10402;49.012;8.370;2023-04-10T06:00:53;9.00;59.90
20487;DHT22;10402;49.012;8.370;2023-04-10T06:03:18;9.10;59.90
20487;DHT22;10402;49.012;8.370;2023-04-10T06:05:44;9.10;59.70
20487;DHT22;10402;49.012;8.370;2023-04-10T06:08:11;9.20;59.60
20487;DHT22;10402;49.012;8.370;2023-04-10T06:10:36;9.20;59.50
20487;DHT22;10402;49.012;8.370;2023-04-10T06:13:02;9.20;59.50
20487;DHT22;10402;49.012;8.370;2023-04-10T06:15:28;9.30;59.50
20487;DHT22;10402;49.012;8.370;2023-04-10T06:17:53;9.30;59.50
20487;DHT22;10402;49.012;8.370;2023-04-10T06:20:20;9.30;59.40
20487;DHT22;10402;49.012;8.370;2023-04-10T06:22:45;9.40;59.30
20487;DHT22;10402;49.012;8.370;2023-04-10T06:25:11;9.40;59.20
20487;DHT22;10402;49.012;8.370;2023-04-10T06:27:37;9.50;59.20
20487;DHT22;10402;49.012;8.370;2023-04-10T06:30:03;9.50;59.00
20487;DHT22;10402;49.012;8.370;2023-04-10T06:32:28;9.60;59.00
20487;DHT22;10402;49.012;8.370;2023-04-10T06:34:54;9.60;58.90
20487;DHT22;10402;49.012;8.370;2023-04-10T06:37:29;9.70;58.80
20487;DHT22;10402;49.012;8.370;2023-04-10T06:40:06;9.80;58.70
20487;DHT22;10402;49.012;8.370;2023-04-10T06:42:33;9.80;58.60
20487;DHT22;10402;49.012;8.370;2023-04-10T06:44:59;9.90;58.60
20487;DHT22;10402;49.012;8.370;2023-04-10T06:47:25;9.90;58.50
20487;DHT22;10402;49.012;8.370;2023-04-10T06:49:50;10.00;57.70
20487;DHT22;10402;49.012;8.370;2023-04-10T06:52:16;10.00;57.50
20487;DHT22;10402;49.012;8.370;2023-04-10T06:54:42;10.00;57.40
20487;DHT22;10402;49.012;8.370;2023-04-10T06:57:07;10.10;57.40
20487;DHT22;10402;49.012;8.370;2023-04-10T06:59:33;10.20;57.40
20487;DHT22;10402;49.012;8.370;2023-04-10T07:02:02;10.20;57.30
20487;DHT22;10402;49.012;8.370;2023-04-10T07:04:28;10.20;57.10
20487;DHT22;10402;49.012;8.370;2023-04-10T07:06:54;10.30;57.20
20487;DHT22;10402;49.012;8.370;2023-04-10T07:09:19;10.40;57.20
20487;DHT22;10402;49.012;8.370;2023-04-10T07:11:45;10.40;57.00
20487;DHT22;10402;49.012;8.370;2023-04-10T07:14:11;10.40;56.90
20487;DHT22;10402;49.012;8.370;2023-04-10T07:16:36;10.50;56.80
20487;DHT22;10402;49.012;8.370;2023-04-10T07:19:02;10.60;56.80
20487;DHT22;10402;49.012;8.370;2023-04-10T07:21:28;10.60;56.80
20487;DHT22;10402;49.012;8.370;2023-04-10T07:23:54;10.60;56.60
20487;DHT22;10402;49.012;8.370;2023-04-10T07:26:19;10.70;56.70
20487;DHT22;10402;49.012;8.370;2023-04-10T07:28:45;10.80;56.60
20487;DHT22;10402;49.012;8.370;2023-04-10T07:31:10;10.80;56.50
20487;DHT22;10402;49.012;8.370;2023-04-10T07:33:37;10.90;56.40
20487;DHT22;10402;49.012;8.370;2023-04-10T07:36:03;10.90;56.20
20487;DHT22;10402;49.012;8.370;2023-04-10T07:38:30;11.00;56.20
20487;DHT22;10402;49.012;8.370;2023-04-10T07:40:57;11.00;56.20
20487;DHT22;10402;49.012;8.370;2023-04-10T07:43:23;11.10;56.10
20487;DHT22;10402;49.012;8.370;2023-04-10T07:45:48;11.20;56.00
20487;DHT22;10402;49.012;8.370;2023-04-10T07:48:14;11.20;55.90
20487;DHT22;10402;49.012;8.370;2023-04-10T07:50:40;11.30;55.80
20487;DHT22;10402;49.012;8.370;2023-04-10T07:53:05;11.30;55.70
20487;DHT22;10402;49.012;8.370;2023-04-10T07:55:40;11.40;55.60
20487;DHT22;10402;49.012;8.370;2023-04-10T07:58:06;11.50;55.60
20487;DHT22;10402;49.012;8.370;2023-04-10T08:00:32;11.50;55.40
20487;DHT22;10402;49.012;8.370;2023-04-10T08:02:58;11.60;55.40
20487;DHT22;10402;49.012;8.370;2023-04-10T08:05:23;11.70;55.30
20487;DHT22;10402;49.012;8.370;2023-04-10T08:07:49;11.70;55.00
20487;DHT22;10402;49.012;8.370;2023-04-10T08:10:15;11.80;54.90
20487;DHT22;10402;49.012;8.370;2023-04-10T08:12:40;11.90;54.80
20487;DHT22;10402;49.012;8.370;2023-04-10T08:15:06;11.90;54.70
20487;DHT22;10402;49.012;8.370;2023-04-10T08:17:32;12.00;54.40
20487;DHT22;10402;49.012;8.370;2023-04-10T08:19:58;12.10;54.40
20487;DHT22;10402;49.012;8.370;2023-04-10T08:22:23;12.20;54.20
20487;DHT22;10402;49.012;8.370;2023-04-10T08:24:49;12.20;54.10
20487;DHT22;10402;49.012;8.370;2023-04-10T08:27:14;12.30;54.10
20487;DHT22;10402;49.012;8.370;2023-04-10T08:29:41;12.30;53.70
20487;DHT22;10402;49.012;8.370;2023-04-10T08:32:07;12.40;53.60
20487;DHT22;10402;49.012;8.370;2023-04-10T08:34:32;12.50;53.60
20487;DHT22;10402;49.012;8.370;2023-04-10T08:36:58;12.60;53.60
20487;DHT22;10402;49.012;8.370;2023-04-10T08:39:23;12.60;53.50
20487;DHT22;10402;49.012;8.370;2023-04-10T08:41:49;12.70;53.50
20487;DHT22;10402;49.012;8.370;2023-04-10T08:44:15;12.80;53.30
20487;DHT22;10402;49.012;8.370;2023-04-10T08:46:42;12.80;53.20
20487;DHT22;10402;49.012;8.370;2023-04-10T08:49:14;12.90;53.10
20487;DHT22;10402;49.012;8.370;2023-04-10T08:51:52;13.00;53.00
20487;DHT22;10402;49.012;8.370;2023-04-10T08:54:20;13.10;52.90
20487;DHT22;10402;49.012;8.370;2023-04-10T08:56:50;13.10;52.80
20487;DHT22;10402;49.012;8.370;2023-04-10T08:59:18;13.20;52.70
20487;DHT22;10402;49.012;8.370;2023-04-10T09:01:44;13.30;52.60
20487;DHT22;10402;49.012;8.370;2023-04-10T09:04:11;13.30;52.50
20487;DHT22;10402;49.012;8.370;2023-04-10T09:06:37;13.40;52.30
20487;DHT22;10402;49.012;8.370;2023-04-10T09:09:05;13.50;52.20
20487;DHT22;10402;49.012;8.370;2023-04-10T09:14:22;13.60;51.60
20487;DHT22;10402;49.012;8.370;2023-04-10T09:16:49;13.70;51.40
20487;DHT22;10402;49.012;8.370;2023-04-10T09:19:29;13.80;51.30
20487;DHT22;10402;49.012;8.370;2023-04-10T09:21:55;13.90;51.20
20487;DHT22;10402;49.012;8.370;2023-04-10T09:24:22;14.00;51.00
20487;DHT22;10402;49.012;8.370;2023-04-10T09:26:48;14.10;50.90
20487;DHT22;10402;49.012;8.370;2023-04-10T09:29:13;14.20;50.80
20487;DHT22;10402;49.012;8.370;2023-04-10T09:31:41;14.20;50.50
20487;DHT22;10402;49.012;8.370;2023-04-10T09:34:18;14.30;50.40
20487;DHT22;10402;49.012;8.370;2023-04-10T09:36:55;14.40;50.30
20487;DHT22;10402;49.012;8.370;2023-04-10T09:39:21;14.50;50.00
20487;DHT22;10402;49.012;8.370;2023-04-10T09:41:56;14.70;49.90
20487;DHT22;10402;49.012;8.370;2023-04-10T09:44:37;14.70;49.70
20487;DHT22;10402;49.012;8.370;2023-04-10T09:47:21;14.80;49.60
20487;DHT22;10402;49.012;8.370;2023-04-10T09:49:52;14.90;49.40
20487;DHT22;10402;49.012;8.370;2023-04-10T09:54:56;15.00;49.20
20487;DHT22;10402;49.012;8.370;2023-04-10T09:57:25;15.10;49.30
20487;DHT22;10402;49.012;8.370;2023-04-10T09:59:52;15.20;48.80
20487;DHT22;10402;49.012;8.370;2023-04-10T10:02:20;15.30;48.70
20487;DHT22;10402;49.012;8.370;2023-04-10T10:04:47;15.30;49.30
20487;DHT22;10402;49.012;8.370;2023-04-10T10:07:17;15.40;48.60
20487;DHT22;10402;49.012;8.370;2023-04-10T10:09:45;15.40;48.50
20487;DHT22;10402;49.012;8.370;2023-04-10T10:12:13;15.50;48.50
20487;DHT22;10402;49.012;8.370;2023-04-10T10:14:56;15.50;48.30
20487;DHT22;10402;49.012;8.370;2023-04-10T10:17:29;15.50;48.30
20487;DHT22;10402;49.012;8.370;2023-04-10T10:20:07;15.50;48.20
20487;DHT22;10402;49.012;8.370;2023-04-10T10:22:34;15.50;48.20
20487;DHT22;10402;49.012;8.370;2023-04-10T10:25:01;15.60;48.30
20487;DHT22;10402;49.012;8.370;2023-04-10T10:27:30;15.60;48.10
20487;DHT22;10402;49.012;8.370;2023-04-10T10:29:59;15.60;47.70
20487;DHT22;10402;49.012;8.370;2023-04-10T10:32:26;15.70;47.90
20487;DHT22;10402;49.012;8.370;2023-04-10T10:34:52;15.70;47.80
20487;DHT22;10402;49.012;8.370;2023-04-10T10:37:22;15.70;47.30
20487;DHT22;10402;49.012;8.370;2023-04-10T10:40:16;15.80;47.40
20487;DHT22;10402;49.012;8.370;2023-04-10T10:45:41;15.90;46.70
20487;DHT22;10402;49.012;8.370;2023-04-10T10:48:10;15.90;46.90
20487;DHT22;10402;49.012;8.370;2023-04-10T10:50:57;16.00;46.80
20487;DHT22;10402;49.012;8.370;2023-04-10T10:53:43;16.00;47.00
20487;DHT22;10402;49.012;8.370;2023-04-10T10:58:48;16.20;46.50
20487;DHT22;10402;49.012;8.370;2023-04-10T11:01:14;16.20;46.30
20487;DHT22;10402;49.012;8.370;2023-04-10T11:03:40;16.20;45.90
20487;DHT22;10402;49.012;8.370;2023-04-10T11:06:10;16.30;46.10
20487;DHT22;10402;49.012;8.370;2023-04-10T11:08:44;16.30;46.20
20487;DHT22;10402;49.012;8.370;2023-04-10T11:11:17;16.40;46.20
20487;DHT22;10402;49.012;8.370;2023-04-10T11:19:15;16.50;45.80
20487;DHT22;10402;49.012;8.370;2023-04-10T11:21:59;16.50;45.70
20487;DHT22;10402;49.012;8.370;2023-04-10T11:24:25;16.50;45.60
20487;DHT22;10402;49.012;8.370;2023-04-10T11:26:51;16.60;45.60
20487;DHT22;10402;49.012;8.370;2023-04-10T11:32:02;16.60;45.90
20487;DHT22;10402;49.012;8.370;2023-04-10T11:34:29;16.70;45.30
20487;DHT22;10402;49.012;8.370;2023-04-10T11:37:01;16.70;44.90
20487;DHT22;10402;49.012;8.370;2023-04-10T11:39:31;16.80;44.90
20487;DHT22;10402;49.012;8.370;2023-04-10T11:41:56;16.80;45.00
20487;DHT22;10402;49.012;8.370;2023-04-10T11:44:33;16.80;44.90
20487;DHT22;10402;49.012;8.370;2023-04-10T11:47:03;16.90;45.00
20487;DHT22;10402;49.012;8.370;2023-04-10T11:49:31;16.90;44.90
20487;DHT22;10402;49.012;8.370;2023-04-10T11:51:57;17.00;44.60
20487;DHT22;10402;49.012;8.370;2023-04-10T11:54:24;17.00;44.60
20487;DHT22;10402;49.012;8.370;2023-04-10T11:57:02;17.00;44.50
20487;DHT22;10402;49.012;8.370;2023-04-10T11:59:28;17.10;44.60
20487;DHT22;10402;49.012;8.370;2023-04-10T12:02:08;17.10;44.20
20487;DHT22;10402;49.012;8.370;2023-04-10T12:04:35;17.10;44.20
20487;DHT22;10402;49.012;8.370;2023-04-10T12:07:01;17.20;44.20
20487;DHT22;10402;49.012;8.370;2023-04-10T12:09:27;17.20;44.10
20487;DHT22;10402;49.012;8.370;2023-04-10T12:12:00;17.30;44.00
20487;DHT22;10402;49.012;8.370;2023-04-10T12:14:39;17.30;44.10
20487;DHT22;10402;49.012;8.370;2023-04-10T12:17:06;17.40;44.10
20487;DHT22;10402;49.012;8.370;2023-04-10T12:19:33;17.40;43.90
20487;DHT22;10402;49.012;8.370;2023-04-10T12:21:59;17.40;43.80
20487;DHT22;10402;49.012;8.370;2023-04-10T12:24:43;17.50;43.80
20487;DHT22;10402;49.012;8.370;2023-04-10T12:29:48;17.50;43.60
20487;DHT22;10402;49.012;8.370;2023-04-10T12:32:13;17.60;43.50
20487;DHT22;10402;49.012;8.370;2023-04-10T12:34:40;17.60;43.50
20487;DHT22;10402;49.012;8.370;2023-04-10T12:37:06;17.60;43.60
20487;DHT22;10402;49.012;8.370;2023-04-10T12:39:32;17.60;43.50
20487;DHT22;10402;49.012;8.370;2023-04-10T12:42:18;17.60;43.60
20487;DHT22;10402;49.012;8.370;2023-04-10T12:44:58;17.60;43.70
20487;DHT22;10402;49.012;8.370;2023-04-10T12:47:25;17.70;43.70
20487;DHT22;10402;49.012;8.370;2023-04-10T12:50:07;17.70;43.70
20487;DHT22;10402;49.012;8.370;2023-04-10T12:52:36;17.70;43.70
20487;DHT22;10402;49.012;8.370;2023-04-10T12:55:09;17.80;43.50
20487;DHT22;10402;49.012;8.370;2023-04-10T12:57:36;17.80;43.60
20487;DHT22;10402;49.012;8.370;2023-04-10T13:00:03;17.90;43.60
20487;DHT22;10402;49.012;8.370;2023-04-10T13:02:29;17.90;43.50
20487;DHT22;10402;49.012;8.370;2023-04-10T13:04:55;17.90;43.30
20487;DHT22;10402;49.012;8.370;2023-04-10T13:07:21;17.90;43.30
20487;DHT22;10402;49.012;8.370;2023-04-10T13:09:46;18.00;43.50
20487;DHT22;10402;49.012;8.370;2023-04-10T13:12:12;18.00;43.50
20487;DHT22;10402;49.012;8.370;2023-04-10T13:14:37;18.00;43.40
20487;DHT22;10402;49.012;8.370;2023-04-10T13:17:03;18.10;43.30
20487;DHT22;10402;49.012;8.370;2023-04-10T13:19:28;18.10;43.10
20487;DHT22;10402;49.012;8.370;2023-04-10T13:21:54;18.10;42.90
20487;DHT22;10402;49.012;8.370;2023-04-10T13:24:20;18.20;42.90
20487;DHT22;10402;49.012;8.370;2023-04-10T13:26:46;18.10;42.90
20487;DHT22;10402;49.012;8.370;2023-04-10T13:29:11;18.20;43.00
20487;DHT22;10402;49.012;8.370;2023-04-10T13:31:37;18.20;42.90
20487;DHT22;10402;49.012;8.370;2023-04-10T13:34:02;18.20;42.90
20487;DHT22;10402;49.012;8.370;2023-04-10T13:36:28;18.30;42.80
20487;DHT22;10402;49.012;8.370;2023-04-10T13:38:54;18.30;42.80
20487;DHT22;10402;49.012;8.370;2023-04-10T13:41:19;18.30;42.50
20487;DHT22;10402;49.012;8.370;2023-04-10T13:43:48;18.40;42.50
20487;DHT22;10402;49.012;8.370;2023-04-10T13:46:13;18.30;42.30
20487;DHT22;10402;49.012;8.370;2023-04-10T13:48:39;18.40;42.40
20487;DHT22;10402;49.012;8.370;2023-04-10T13:51:06;18.40;42.40
20487;DHT22;10402;49.012;8.370;2023-04-10T13:53:32;18.40;42.50
20487;DHT22;10402;49.012;8.370;2023-04-10T13:55:57;18.50;42.50
20487;DHT22;10402;49.012;8.370;2023-04-10T13:58:23;18.50;42.40
20487;DHT22;10402;49.012;8.370;2023-04-10T14:00:50;18.60;42.40
20487;DHT22;10402;49.012;8.370;2023-04-10T14:03:16;18.60;42.30
20487;DHT22;10402;49.012;8.370;2023-04-10T14:05:41;18.60;42.20
20487;DHT22;10402;49.012;8.370;2023-04-10T14:08:07;18.50;42.10
20487;DHT22;10402;49.012;8.370;2023-04-10T14:10:36;18.60;42.90
20487;DHT22;10402;49.012;8.370;2023-04-10T14:13:04;18.60;42.20
20487;DHT22;10402;49.012;8.370;2023-04-10T14:15:30;18.60;42.20
20487;DHT22;10402;49.012;8.370;2023-04-10T14:17:55;18.60;42.20
20487;DHT22;10402;49.012;8.370;2023-04-10T14:20:21;18.60;42.20
20487;DHT22;10402;49.012;8.370;2023-04-10T14:22:46;18.70;42.20
20487;DHT22;10402;49.012;8.370;2023-04-10T14:25:12;18.70;42.30
20487;DHT22;10402;49.012;8.370;2023-04-10T14:27:40;18.70;42.20
20487;DHT22;10402;49.012;8.370;2023-04-10T14:30:07;18.70;42.00
20487;DHT22;10402;49.012;8.370;2023-04-10T14:32:32;18.80;42.10
20487;DHT22;10402;49.012;8.370;2023-04-10T14:34:58;18.80;42.10
20487;DHT22;10402;49.012;8.370;2023-04-10T14:37:23;18.80;42.20
20487;DHT22;10402;49.012;8.370;2023-04-10T14:39:49;18.80;42.20
20487;DHT22;10402;49.012;8.370;2023-04-10T14:42:14;18.70;42.80
20487;DHT22;10402;49.012;8.370;2023-04-10T14:44:40;18.80;42.30
20487;DHT22;10402;49.012;8.370;2023-04-10T14:47:06;18.70;42.30
20487;DHT22;10402;49.012;8.370;2023-04-10T14:49:32;18.80;42.40
20487;DHT22;10402;49.012;8.370;2023-04-10T14:51:58;18.80;42.40
20487;DHT22;10402;49.012;8.370;2023-04-10T14:54:23;18.80;42.40
20487;DHT22;10402;49.012;8.370;2023-04-10T14:56:49;18.80;42.40
20487;DHT22;10402;49.012;8.370;2023-04-10T14:59:16;18.70;42.50
20487;DHT22;10402;49.012;8.370;2023-04-10T15:01:42;18.70;42.50
20487;DHT22;10402;49.012;8.370;2023-04-10T15:04:07;18.70;42.50
20487;DHT22;10402;49.012;8.370;2023-04-10T15:06:33;18.60;42.50
20487;DHT22;10402;49.012;8.370;2023-04-10T15:08:59;18.60;42.60
20487;DHT22;10402;49.012;8.370;2023-04-10T15:11:25;18.60;42.70
20487;DHT22;10402;49.012;8.370;2023-04-10T15:13:50;18.60;42.80
20487;DHT22;10402;49.012;8.370;2023-04-10T15:16:16;18.60;42.90
20487;DHT22;10402;49.012;8.370;2023-04-10T15:18:42;18.60;43.00
20487;DHT22;10402;49.012;8.370;2023-04-10T15:21:07;18.50;43.00
20487;DHT22;10402;49.012;8.370;2023-04-10T15:23:33;18.50;43.00
20487;DHT22;10402;49.012;8.370;2023-04-10T15:25:59;18.50;43.00
20487;DHT22;10402;49.012;8.370;2023-04-10T15:28:25;18.50;43.10
20487;DHT22;10402;49.012;8.370;2023-04-10T15:30:52;18.50;43.20
20487;DHT22;10402;49.012;8.370;2023-04-10T15:33:17;18.40;43.20
20487;DHT22;10402;49.012;8.370;2023-04-10T15:35:47;18.40;43.30
20487;DHT22;10402;49.012;8.370;2023-04-10T15:38:13;18.40;43.30
20487;DHT22;10402;49.012;8.370;2023-04-10T15:40:39;18.40;43.50
20487;DHT22;10402;49.012;8.370;2023-04-10T15:43:04;18.40;43.60
20487;DHT22;10402;49.012;8.370;2023-04-10T15:45:30;18.40;43.70
20487;DHT22;10402;49.012;8.370;2023-04-10T15:47:55;18.40;43.80
20487;DHT22;10402;49.012;8.370;2023-04-10T15:50:23;18.40;43.90
20487;DHT22;10402;49.012;8.370;2023-04-10T15:52:48;18.30;44.00
20487;DHT22;10402;49.012;8.370;2023-04-10T15:55:14;18.30;44.10
20487;DHT22;10402;49.012;8.370;2023-04-10T15:57:40;18.30;44.10
20487;DHT22;10402;49.012;8.370;2023-04-10T16:00:06;18.40;44.40
20487;DHT22;10402;49.012;8.370;2023-04-10T16:02:32;18.30;44.40
20487;DHT22;10402;49.012;8.370;2023-04-10T16:04:57;18.40;44.60
20487;DHT22;10402;49.012;8.370;2023-04-10T16:07:23;18.30;44.50
20487;DHT22;10402;49.012;8.370;2023-04-10T16:09:48;18.30;44.60
20487;DHT22;10402;49.012;8.370;2023-04-10T16:12:16;18.30;44.70
20487;DHT22;10402;49.012;8.370;2023-04-10T16:14:42;18.30;44.80
20487;DHT22;10402;49.012;8.370;2023-04-10T16:17:07;18.20;44.90